UPSVAC Airport Information Service

Columbus Rickenbacker International Airport

ICAO: KLCK Country: United States
Latitude: 39.8138 Longitude: -82.9278
Latest Arrival : UPS1630 (KSDF-KLCK) Latest Departure : UPS1931 (KLCK-KSDF)


WX CaptureLIVE
Data provided by noaa.gov | Fetched at 13:23:38

METAR : KLCK 141255Z AUTO 35003KT 10SM CLR 10/03 A3014 RMK AO2 T00960030

TAF : KLCK 141125Z 1412/1512 35006KT P6SM SCT060 OVC080 FM141600 25009KT P6SM SCT090 BKN250 FM150100 30008KT P6SM SCT090 BKN250 FM150400 33007KT P6SM SCT090 BKN250


Runway Data for KLCK
Data provided by openaviationdata.com

Runway ID Mag Var Hdg Length Elevation Surface ILS Freq ILS Id ILS Slope
05L -5 50° 11934 ft 744 ft Asphalt -- -- --
05R -5 50° 12098 ft 744 ft Asphalt 110.1 IDDV 3
23L -5 230° 12098 ft 744 ft Asphalt 110.1 ILCK 3
23R -5 230° 11934 ft 744 ft Asphalt -- -- --

Columbus Rickenbacker International Airport, United States
Use only for reference purposes



Not for navigational purposes.